createdAt,value
2018-05-24T00:01:18.530Z,9.63
2018-05-24T00:03:45.967Z,7.87
2018-05-24T00:06:13.407Z,9.47
2018-05-24T00:08:41.234Z,9.00
2018-05-24T00:11:08.682Z,8.67
2018-05-24T00:13:36.126Z,10.13
2018-05-24T00:16:03.597Z,9.83
2018-05-24T00:18:31.056Z,9.57
2018-05-24T00:20:58.502Z,9.77
2018-05-24T00:23:25.950Z,10.83
2018-05-24T00:25:53.410Z,10.80
2018-05-24T00:28:21.626Z,12.70
2018-05-24T00:30:49.064Z,12.57
2018-05-24T00:33:16.514Z,12.60
2018-05-24T00:35:43.966Z,10.63
2018-05-24T00:38:11.402Z,11.60
2018-05-24T00:40:38.866Z,14.27
2018-05-24T00:43:06.330Z,12.67
2018-05-24T00:45:34.545Z,13.27
2018-05-24T00:48:01.990Z,12.60
2018-05-24T00:50:29.442Z,12.10
2018-05-24T00:52:56.914Z,12.03
2018-05-24T00:55:37.108Z,11.70
2018-05-24T00:58:04.562Z,11.37
2018-05-24T01:00:32.018Z,12.47
2018-05-24T01:02:59.483Z,13.43
2018-05-24T01:05:26.934Z,12.30
2018-05-24T01:07:54.392Z,11.87
2018-05-24T01:10:22.609Z,12.17
2018-05-24T01:12:50.071Z,11.40
2018-05-24T01:15:17.546Z,11.83
2018-05-24T01:17:45.057Z,14.30
2018-05-24T01:20:13.421Z,11.97
2018-05-24T01:22:41.133Z,12.73
2018-05-24T01:25:08.579Z,12.00
2018-05-24T01:27:36.034Z,11.13
2018-05-24T01:30:03.495Z,11.07
2018-05-24T01:32:30.937Z,12.70
2018-05-24T01:34:58.386Z,12.67
2018-05-24T01:37:38.587Z,13.03
2018-05-24T01:40:06.030Z,12.50
2018-05-24T01:42:33.490Z,11.57
2018-05-24T01:45:00.938Z,11.33
2018-05-24T01:47:28.406Z,10.63
2018-05-24T01:49:56.632Z,12.57
2018-05-24T01:52:24.115Z,12.63
2018-05-24T01:54:52.313Z,13.10
2018-05-24T01:57:19.778Z,12.60
2018-05-24T01:59:47.229Z,11.67
2018-05-24T02:02:14.687Z,12.50
2018-05-24T02:04:42.135Z,10.50
2018-05-24T02:07:09.590Z,10.43
2018-05-24T02:09:37.795Z,11.93
2018-05-24T02:12:05.238Z,11.57
2018-05-24T02:14:32.690Z,10.70
2018-05-24T02:17:00.137Z,11.20
2018-05-24T02:19:27.582Z,10.80
2018-05-24T02:21:55.038Z,10.63
2018-05-24T02:24:22.483Z,11.77
2018-05-24T02:26:49.940Z,12.10
2018-05-24T02:29:18.154Z,12.00
2018-05-24T02:31:45.609Z,10.83
2018-05-24T02:34:13.038Z,12.73
2018-05-24T02:36:40.497Z,12.20
2018-05-24T02:39:07.958Z,12.27
2018-05-24T02:41:35.426Z,11.83
2018-05-24T02:44:03.618Z,11.33
2018-05-24T02:46:31.061Z,11.60
2018-05-24T02:48:58.514Z,12.73
2018-05-24T02:51:25.983Z,13.60
2018-05-24T02:53:53.418Z,14.37
2018-05-24T02:56:20.918Z,13.37
2018-05-24T02:58:48.326Z,12.00
2018-05-24T03:01:15.793Z,13.07
2018-05-24T03:03:44.006Z,11.40
2018-05-24T03:06:11.455Z,11.07
2018-05-24T03:08:38.902Z,9.60
2018-05-24T03:11:06.347Z,9.10
2018-05-24T03:13:33.800Z,9.03
2018-05-24T03:16:01.237Z,9.60
2018-05-24T03:18:28.689Z,8.60
2018-05-24T03:20:56.146Z,8.30
2018-05-24T03:23:24.359Z,9.00
2018-05-24T03:25:51.785Z,9.10
2018-05-24T03:28:19.237Z,8.63
2018-05-24T03:30:46.692Z,10.80
2018-05-24T03:33:14.194Z,9.63
2018-05-24T03:35:41.633Z,8.67
2018-05-24T03:38:09.084Z,9.50
2018-05-24T03:40:36.554Z,9.67
2018-05-24T03:43:04.056Z,10.63
2018-05-24T03:45:31.490Z,10.80
2018-05-24T03:47:59.751Z,10.03
2018-05-24T03:50:27.195Z,11.13
2018-05-24T03:52:55.416Z,9.90
2018-05-24T03:55:22.866Z,11.03
2018-05-24T03:57:50.335Z,9.90
2018-05-24T04:00:29.726Z,10.20
2018-05-24T04:03:09.001Z,9.30
2018-05-24T04:05:36.451Z,10.17
2018-05-24T04:08:03.885Z,9.90
2018-05-24T04:10:32.161Z,11.57
2018-05-24T04:12:59.619Z,9.17
2018-05-24T04:15:27.105Z,9.73
2018-05-24T04:17:54.542Z,10.37
2018-05-24T04:20:21.995Z,10.40
2018-05-24T04:22:49.443Z,10.67
2018-05-24T04:25:17.666Z,11.60
2018-05-24T04:27:45.163Z,12.30
2018-05-24T04:30:12.614Z,11.90
2018-05-24T04:32:40.056Z,10.13
2018-05-24T04:35:07.527Z,10.70
2018-05-24T04:37:34.985Z,10.50
2018-05-24T04:40:02.441Z,10.93
2018-05-24T04:42:29.900Z,11.57
2018-05-24T04:44:57.338Z,11.57
2018-05-24T04:47:24.774Z,11.77
2018-05-24T04:49:52.230Z,12.23
2018-05-24T04:52:20.443Z,12.03
2018-05-24T04:54:47.910Z,13.20
2018-05-24T04:57:15.360Z,13.20
2018-05-24T04:59:42.823Z,12.00
2018-05-24T05:02:10.280Z,14.27
2018-05-24T05:04:38.503Z,14.13
2018-05-24T05:07:05.948Z,12.70
2018-05-24T05:09:33.410Z,13.90
2018-05-24T05:12:01.639Z,13.37
2018-05-24T05:14:29.494Z,13.07
2018-05-24T05:16:56.917Z,13.90
2018-05-24T05:19:24.438Z,14.37
2018-05-24T05:21:52.626Z,12.63
2018-05-24T05:24:20.082Z,13.93
2018-05-24T05:26:47.536Z,13.77
2018-05-24T05:29:14.978Z,12.80
2018-05-24T05:31:42.467Z,13.10
2018-05-24T05:34:10.090Z,12.57
2018-05-24T05:36:37.533Z,13.13
2018-05-24T05:39:05.658Z,13.03
2018-05-24T05:41:33.102Z,14.20
2018-05-24T05:44:00.560Z,16.10
2018-05-24T05:46:28.005Z,15.30
2018-05-24T05:48:55.452Z,14.73
2018-05-24T05:51:22.996Z,14.83
2018-05-24T05:53:50.443Z,15.20
2018-05-24T05:56:17.887Z,15.00
2018-05-24T05:58:46.113Z,15.47
2018-05-24T06:01:13.538Z,14.20
2018-05-24T06:03:40.992Z,14.43
2018-05-24T06:06:08.426Z,13.37
2018-05-24T06:08:35.869Z,13.83
2018-05-24T06:11:03.316Z,14.20
2018-05-24T06:13:30.773Z,14.73
2018-05-24T06:15:58.234Z,14.70
2018-05-24T06:18:25.687Z,12.60
2018-05-24T06:20:53.172Z,14.43
2018-05-24T06:23:20.603Z,12.90
2018-05-24T06:25:48.059Z,14.00
2018-05-24T06:28:15.553Z,14.47
2018-05-24T06:30:43.032Z,12.53
2018-05-24T06:33:10.470Z,13.10
2018-05-24T06:35:37.914Z,9.30
2018-05-24T06:38:06.109Z,9.23
2018-05-24T06:40:33.618Z,9.37
2018-05-24T06:43:00.994Z,8.80
2018-05-24T06:45:28.449Z,8.50
2018-05-24T06:47:55.891Z,9.77
2018-05-24T06:50:23.344Z,10.17
2018-05-24T06:52:50.783Z,11.73
2018-05-24T06:55:18.225Z,9.40
2018-05-24T06:57:45.669Z,10.43
2018-05-24T07:00:13.109Z,10.00
2018-05-24T07:02:40.550Z,9.43
2018-05-24T07:05:08.003Z,10.70
2018-05-24T07:07:35.525Z,10.37
2018-05-24T07:10:02.954Z,9.83
2018-05-24T07:12:30.390Z,10.23
2018-05-24T07:14:57.850Z,9.50
2018-05-24T07:17:25.291Z,10.67
2018-05-24T07:19:52.734Z,9.67
2018-05-24T07:22:20.183Z,11.93
2018-05-24T07:24:47.635Z,9.67
2018-05-24T07:27:15.058Z,10.43
2018-05-24T07:29:42.502Z,11.23
2018-05-24T07:32:09.942Z,10.83
2018-05-24T07:34:37.398Z,10.53
2018-05-24T07:37:04.854Z,10.00
2018-05-24T07:39:32.330Z,10.70
2018-05-24T07:42:00.530Z,11.57
2018-05-24T07:44:27.978Z,10.63
2018-05-24T07:46:55.422Z,13.30
2018-05-24T07:49:22.878Z,11.53
2018-05-24T07:51:50.341Z,10.10
2018-05-24T07:54:17.794Z,10.07
2018-05-24T07:56:45.271Z,10.47
2018-05-24T07:59:12.726Z,11.07
2018-05-24T08:01:40.255Z,9.60
2018-05-24T08:04:07.605Z,28.30
2018-05-24T08:06:35.860Z,11.37
2018-05-24T08:09:03.307Z,13.20
2018-05-24T08:11:30.762Z,10.27
2018-05-24T08:13:58.199Z,10.30
2018-05-24T08:16:25.641Z,10.43
2018-05-24T08:18:53.114Z,11.27
2018-05-24T08:21:20.544Z,11.57
2018-05-24T08:23:48.000Z,11.60
2018-05-24T08:26:15.450Z,12.17
2018-05-24T08:28:42.903Z,12.27
2018-05-24T08:31:10.365Z,11.17
2018-05-24T08:33:37.806Z,10.13
2018-05-24T08:36:06.023Z,11.47
2018-05-24T08:38:33.466Z,11.90
2018-05-24T08:41:01.005Z,11.40
2018-05-24T08:43:28.361Z,12.87
2018-05-24T08:45:55.822Z,12.17
2018-05-24T08:48:23.252Z,10.63
2018-05-24T08:50:50.709Z,10.93
2018-05-24T08:53:18.209Z,10.60
2018-05-24T08:55:45.607Z,11.10
2018-05-24T08:58:13.054Z,11.10
2018-05-24T09:00:41.307Z,12.57
2018-05-24T09:03:08.734Z,11.77
2018-05-24T09:05:36.181Z,11.00
2018-05-24T09:08:03.637Z,10.63
2018-05-24T09:10:31.854Z,13.17
2018-05-24T09:12:59.288Z,11.23
2018-05-24T09:15:26.743Z,12.30
2018-05-24T09:17:54.173Z,11.70
2018-05-24T09:20:21.637Z,12.03
2018-05-24T09:22:49.094Z,12.60
2018-05-24T09:25:16.545Z,11.20
2018-05-24T09:27:43.994Z,11.77
2018-05-24T09:30:11.457Z,9.57
2018-05-24T09:32:39.654Z,11.37
2018-05-24T09:35:07.111Z,11.80
2018-05-24T09:37:34.552Z,12.97
2018-05-24T09:40:02.754Z,13.80
2018-05-24T09:42:30.966Z,11.50
2018-05-24T09:44:58.419Z,12.40
2018-05-24T09:47:25.857Z,12.20
2018-05-24T09:49:53.306Z,12.37
2018-05-24T09:52:20.752Z,12.60
2018-05-24T09:54:48.198Z,13.33
2018-05-24T09:57:15.653Z,12.53
2018-05-24T09:59:43.111Z,12.50
2018-05-24T10:02:11.321Z,11.27
2018-05-24T10:04:38.854Z,11.80
2018-05-24T10:07:06.222Z,13.27
2018-05-24T10:09:34.448Z,11.33
2018-05-24T10:12:01.894Z,12.97
2018-05-24T10:14:29.425Z,12.70
2018-05-24T10:16:56.802Z,12.90
2018-05-24T10:19:24.251Z,14.93
2018-05-24T10:21:51.684Z,13.83
2018-05-24T10:24:19.141Z,12.57
2018-05-24T10:26:46.582Z,14.20
2018-05-24T10:29:14.046Z,13.63
2018-05-24T10:31:41.510Z,15.00
2018-05-24T10:34:09.727Z,13.50
2018-05-24T10:36:37.927Z,16.40
2018-05-24T10:39:06.138Z,16.27
2018-05-24T10:41:33.615Z,13.70
2018-05-24T10:44:01.038Z,17.23
2018-05-24T10:46:28.486Z,17.07
2018-05-24T10:48:55.941Z,15.47
2018-05-24T10:51:23.437Z,16.23
2018-05-24T10:53:51.603Z,14.03
2018-05-24T10:56:19.057Z,14.93
2018-05-24T10:58:46.514Z,15.30
2018-05-24T11:01:14.790Z,15.00
2018-05-24T11:03:42.991Z,15.37
2018-05-24T11:06:10.443Z,15.57
2018-05-24T11:08:37.895Z,15.27
2018-05-24T11:11:05.331Z,14.53
2018-05-24T11:13:32.778Z,15.27
2018-05-24T11:16:00.227Z,15.13
2018-05-24T11:18:27.664Z,15.10
2018-05-24T11:20:55.101Z,15.53
2018-05-24T11:23:22.958Z,15.93
2018-05-24T11:25:50.422Z,14.53
2018-05-24T11:28:17.868Z,16.17
2018-05-24T11:30:45.322Z,15.23
2018-05-24T11:33:12.790Z,14.90
2018-05-24T11:35:40.278Z,15.47
2018-05-24T11:38:08.444Z,12.37
2018-05-24T11:40:35.886Z,11.00
2018-05-24T11:43:03.377Z,11.13
2018-05-24T11:45:30.802Z,8.97
2018-05-24T11:47:58.253Z,9.60
2018-05-24T11:50:25.793Z,6.77
2018-05-24T11:52:53.233Z,8.27
2018-05-24T11:55:20.667Z,9.40
2018-05-24T11:57:48.121Z,8.37
2018-05-24T12:00:15.558Z,8.20
2018-05-24T12:02:43.052Z,9.60
2018-05-24T12:05:10.523Z,9.80
2018-05-24T12:07:37.988Z,8.60
2018-05-24T12:10:05.424Z,8.30
2018-05-24T12:12:32.883Z,10.93
2018-05-24T12:15:00.305Z,9.13
2018-05-24T12:17:27.752Z,9.30
2018-05-24T12:19:55.193Z,9.07
2018-05-24T12:22:22.650Z,9.53
2018-05-24T12:24:50.088Z,10.70
2018-05-24T12:27:17.567Z,11.30
2018-05-24T12:29:45.046Z,10.97
2018-05-24T12:32:12.482Z,12.30
2018-05-24T12:34:39.920Z,10.83
2018-05-24T12:37:07.358Z,10.30
2018-05-24T12:39:34.803Z,10.73
2018-05-24T12:42:02.271Z,8.30
2018-05-24T12:44:29.718Z,8.73
2018-05-24T12:46:57.176Z,9.00
2018-05-24T12:49:24.665Z,10.13
2018-05-24T12:51:52.101Z,8.37
2018-05-24T12:54:19.570Z,10.67
2018-05-24T12:56:47.026Z,11.77
2018-05-24T12:59:14.868Z,9.27
2018-05-24T13:01:42.298Z,11.00
2018-05-24T13:04:09.782Z,11.63
2018-05-24T13:06:37.205Z,9.87
2018-05-24T13:09:05.423Z,10.37
2018-05-24T13:11:32.881Z,10.53
2018-05-24T13:14:00.314Z,9.27
2018-05-24T13:16:27.754Z,11.47
2018-05-24T13:18:55.206Z,10.43
2018-05-24T13:21:22.676Z,9.07
2018-05-24T13:23:50.530Z,9.43
2018-05-24T13:26:18.053Z,9.70
2018-05-24T13:28:45.558Z,10.60
2018-05-24T13:31:13.778Z,10.67
2018-05-24T13:33:41.202Z,7.97
2018-05-24T13:36:08.647Z,10.30
2018-05-24T13:38:36.098Z,10.43
2018-05-24T13:41:03.534Z,9.40
2018-05-24T13:43:30.965Z,9.27
2018-05-24T13:45:58.427Z,9.23
2018-05-24T13:48:25.879Z,9.00
2018-05-24T13:50:53.337Z,9.80
2018-05-24T13:53:20.795Z,9.27
2018-05-24T13:55:48.258Z,9.77
2018-05-24T13:58:16.458Z,9.70
2018-05-24T14:00:44.573Z,12.03
2018-05-24T14:03:12.946Z,10.27
2018-05-24T14:05:40.385Z,9.70
2018-05-24T14:08:08.701Z,9.43
2018-05-24T14:10:36.123Z,9.30
2018-05-24T14:13:03.673Z,10.70
2018-05-24T14:15:31.117Z,10.93
2018-05-24T14:17:58.562Z,9.97
2018-05-24T14:20:26.067Z,13.67
2018-05-24T14:22:54.295Z,11.07
2018-05-24T14:25:21.734Z,10.27
2018-05-24T14:27:49.192Z,10.43
2018-05-24T14:30:17.428Z,11.10
2018-05-24T14:32:44.890Z,10.53
2018-05-24T14:35:12.347Z,10.17
2018-05-24T14:37:39.790Z,9.17
2018-05-24T14:40:08.017Z,11.90
2018-05-24T14:42:35.470Z,11.03
2018-05-24T14:45:02.973Z,10.50
2018-05-24T14:47:31.172Z,8.40
2018-05-24T14:49:58.613Z,10.73
2018-05-24T14:52:26.069Z,10.73
2018-05-24T14:54:53.542Z,10.97
2018-05-24T14:57:21.749Z,12.53
2018-05-24T14:59:49.206Z,11.97
2018-05-24T15:02:16.692Z,10.80
2018-05-24T15:04:44.966Z,12.40
2018-05-24T15:07:12.421Z,12.20
2018-05-24T15:09:39.858Z,12.60
2018-05-24T15:12:07.313Z,11.40
2018-05-24T15:14:34.760Z,11.87
2018-05-24T15:17:02.247Z,11.30
2018-05-24T15:19:30.458Z,12.73
2018-05-24T15:21:57.910Z,11.70
2018-05-24T15:24:25.363Z,14.10
2018-05-24T15:26:52.810Z,13.03
2018-05-24T15:29:20.258Z,12.57
2018-05-24T15:31:47.715Z,11.83
2018-05-24T15:34:15.153Z,14.27
2018-05-24T15:36:42.608Z,13.00
2018-05-24T15:39:10.868Z,13.63
2018-05-24T15:41:38.308Z,13.13
2018-05-24T15:44:06.533Z,11.57
2018-05-24T15:46:33.974Z,13.47
2018-05-24T15:49:01.433Z,13.00
2018-05-24T15:51:28.888Z,13.50
2018-05-24T15:53:56.323Z,14.00
2018-05-24T15:56:23.764Z,12.57
2018-05-24T15:58:51.213Z,12.30
2018-05-24T16:01:18.653Z,11.50
2018-05-24T16:03:46.114Z,14.70
2018-05-24T16:06:14.327Z,12.80
2018-05-24T16:08:41.783Z,11.53
2018-05-24T16:11:09.217Z,12.10
2018-05-24T16:13:36.663Z,12.90
2018-05-24T16:16:04.129Z,13.77
2018-05-24T16:18:32.387Z,13.10
2018-05-24T16:20:59.826Z,12.33
2018-05-24T16:23:27.293Z,11.90
2018-05-24T16:25:55.519Z,13.47
2018-05-24T16:28:22.969Z,14.10
2018-05-24T16:30:50.414Z,14.17
2018-05-24T16:33:17.854Z,14.50
2018-05-24T16:35:45.304Z,13.33
2018-05-24T16:38:12.747Z,13.50
2018-05-24T16:40:40.193Z,12.53
2018-05-24T16:43:07.729Z,13.57
2018-05-24T16:45:35.175Z,13.00
2018-05-24T16:48:02.631Z,12.30
2018-05-24T16:50:30.074Z,14.23
2018-05-24T16:52:57.554Z,13.03
2018-05-24T16:55:25.003Z,13.80
2018-05-24T16:57:52.482Z,13.57
2018-05-24T17:00:19.918Z,12.90
2018-05-24T17:02:47.410Z,14.10
2018-05-24T17:05:14.866Z,12.93
2018-05-24T17:07:42.310Z,12.97
2018-05-24T17:10:09.761Z,13.57
2018-05-24T17:12:37.267Z,11.70
2018-05-24T17:15:04.709Z,11.93
2018-05-24T17:17:32.173Z,12.17
2018-05-24T17:20:00.367Z,13.27
2018-05-24T17:22:27.810Z,11.67
2018-05-24T17:24:55.264Z,12.33
2018-05-24T17:27:22.710Z,18.77
2018-05-24T17:29:52.795Z,14.40
2018-05-24T17:32:20.235Z,12.33
2018-05-24T17:34:47.714Z,12.67
2018-05-24T17:37:15.199Z,11.43
2018-05-24T17:39:43.420Z,11.03
2018-05-24T17:42:10.886Z,10.50
2018-05-24T17:44:39.090Z,9.77
2018-05-24T17:47:06.528Z,8.33
2018-05-24T17:49:33.983Z,8.60
2018-05-24T17:52:01.440Z,10.23
2018-05-24T17:54:28.937Z,9.67
2018-05-24T17:56:56.374Z,9.23
2018-05-24T17:59:23.821Z,10.77
2018-05-24T18:01:51.287Z,9.10
2018-05-24T18:04:18.735Z,9.63
2018-05-24T18:06:46.181Z,9.27
2018-05-24T18:09:13.636Z,8.70
2018-05-24T18:11:41.074Z,7.70
2018-05-24T18:14:08.506Z,7.63
2018-05-24T18:16:35.934Z,6.20
2018-05-24T18:19:03.380Z,3.43
2018-05-24T18:21:30.823Z,3.77
2018-05-24T18:23:58.290Z,3.17
2018-05-24T18:26:25.723Z,2.70
2018-05-24T18:28:53.161Z,2.80
2018-05-24T18:31:20.602Z,2.30
2018-05-24T18:33:48.037Z,2.40
2018-05-24T18:36:15.550Z,3.90
2018-05-24T18:38:42.939Z,2.90
2018-05-24T18:41:10.370Z,4.60
2018-05-24T18:43:37.833Z,5.93
2018-05-24T18:46:05.284Z,5.63
2018-05-24T18:48:32.758Z,4.37
2018-05-24T18:51:00.950Z,5.23
2018-05-24T18:53:28.409Z,7.43
2018-05-24T18:55:55.846Z,4.00
2018-05-24T18:58:23.311Z,5.13
2018-05-24T19:00:50.745Z,4.53
2018-05-24T19:03:18.200Z,4.27
2018-05-24T19:05:45.647Z,6.00
2018-05-24T19:08:13.131Z,4.00
2018-05-24T19:13:15.328Z,4.63
2018-05-24T19:15:42.777Z,3.70
2018-05-24T19:18:10.219Z,4.20
2018-05-24T19:20:37.678Z,7.10
2018-05-24T19:23:05.118Z,3.90
2018-05-24T19:25:32.575Z,4.40
2018-05-24T19:28:00.032Z,4.00
2018-05-24T19:30:28.262Z,4.07
2018-05-24T19:32:55.693Z,3.80
2018-05-24T19:35:23.138Z,4.13
2018-05-24T19:37:50.575Z,4.90
2018-05-24T19:40:18.039Z,3.90
2018-05-24T19:42:45.489Z,10.10
2018-05-24T19:45:13.004Z,4.77
2018-05-24T19:47:40.463Z,11.83
2018-05-24T19:50:07.927Z,4.10
2018-05-24T19:52:36.136Z,5.03
2018-05-24T19:55:03.597Z,5.30
2018-05-24T19:57:31.051Z,5.87
2018-05-24T19:59:58.496Z,6.13
2018-05-24T20:02:25.925Z,6.63
2018-05-24T20:04:53.371Z,5.43
2018-05-24T20:07:20.803Z,4.40
2018-05-24T20:09:48.242Z,5.00
2018-05-24T20:12:15.688Z,5.50
2018-05-24T20:14:43.143Z,3.47
2018-05-24T20:17:10.573Z,4.00
2018-05-24T20:19:38.013Z,4.50
2018-05-24T20:22:05.459Z,4.70
2018-05-24T20:24:32.905Z,3.53
2018-05-24T20:27:00.381Z,7.70
2018-05-24T20:29:27.818Z,4.03
2018-05-24T20:31:55.267Z,5.00
2018-05-24T20:34:23.469Z,4.70
2018-05-24T20:36:50.926Z,5.03
2018-05-24T20:39:18.398Z,4.60
2018-05-24T20:41:45.873Z,6.40
2018-05-24T20:44:13.285Z,3.87
2018-05-24T20:46:40.741Z,4.80
2018-05-24T20:49:08.950Z,4.07
2018-05-24T20:51:36.390Z,4.40
2018-05-24T20:54:03.831Z,4.07
2018-05-24T20:56:31.287Z,4.13
2018-05-24T20:58:58.742Z,4.27
2018-05-24T21:01:26.347Z,4.50
2018-05-24T21:03:53.786Z,3.60
2018-05-24T21:06:21.250Z,4.60
2018-05-24T21:08:48.707Z,7.30
2018-05-24T21:11:16.147Z,3.90
2018-05-24T21:13:43.631Z,6.67
2018-05-24T21:16:11.049Z,6.30
2018-05-24T21:18:38.572Z,4.63
2018-05-24T21:21:06.051Z,4.00
2018-05-24T21:23:33.520Z,4.40
2018-05-24T21:26:01.726Z,5.90
2018-05-24T21:28:29.171Z,4.97
2018-05-24T21:30:56.618Z,6.37
2018-05-24T21:33:24.055Z,4.60
2018-05-24T21:35:51.519Z,5.63
2018-05-24T21:38:18.959Z,5.37
2018-05-24T21:40:46.408Z,5.10
2018-05-24T21:43:13.862Z,7.30
2018-05-24T21:45:41.297Z,4.97
2018-05-24T21:48:08.731Z,5.23
2018-05-24T21:50:36.170Z,5.47
2018-05-24T21:53:03.634Z,5.43
2018-05-24T21:55:31.088Z,5.77
2018-05-24T21:57:59.294Z,6.30
2018-05-24T22:00:26.737Z,6.93
2018-05-24T22:02:54.964Z,5.73
2018-05-24T22:05:23.175Z,13.03
2018-05-24T22:07:50.618Z,8.13
2018-05-24T22:10:18.110Z,7.40
2018-05-24T22:12:46.353Z,22.23
2018-05-24T22:15:13.806Z,7.50
2018-05-24T22:17:42.931Z,6.30
2018-05-24T22:20:10.444Z,5.93
2018-05-24T22:22:38.642Z,7.30
2018-05-24T22:25:06.094Z,7.13
2018-05-24T22:27:33.537Z,7.30
2018-05-24T22:30:01.004Z,6.60
2018-05-24T22:32:28.453Z,6.67
2018-05-24T22:34:55.909Z,7.30
2018-05-24T22:37:24.109Z,7.37
2018-05-24T22:39:51.582Z,7.03
2018-05-24T22:42:19.041Z,7.27
2018-05-24T22:44:46.487Z,14.73
2018-05-24T22:47:14.700Z,7.50
2018-05-24T22:49:42.137Z,8.60
2018-05-24T22:52:09.562Z,7.10
2018-05-24T22:54:37.050Z,7.87
2018-05-24T22:57:04.489Z,8.00
2018-05-24T22:59:31.951Z,8.73
2018-05-24T23:01:59.369Z,10.17
2018-05-24T23:04:26.816Z,9.77
2018-05-24T23:06:54.257Z,13.93
2018-05-24T23:09:22.460Z,8.97
2018-05-24T23:11:50.670Z,9.53
2018-05-24T23:14:18.108Z,9.93
2018-05-24T23:16:45.562Z,10.20
2018-05-24T23:19:13.035Z,11.70
2018-05-24T23:21:40.470Z,10.73
2018-05-24T23:24:07.907Z,9.73
2018-05-24T23:26:35.345Z,9.20
2018-05-24T23:29:02.794Z,9.17
2018-05-24T23:31:30.233Z,10.20
2018-05-24T23:33:57.691Z,9.23
2018-05-24T23:36:25.118Z,10.83
2018-05-24T23:38:52.576Z,11.70
2018-05-24T23:41:20.010Z,9.27
2018-05-24T23:43:47.447Z,9.07
2018-05-24T23:46:14.898Z,9.93
2018-05-24T23:48:42.330Z,9.50
2018-05-24T23:51:09.770Z,9.37
2018-05-24T23:53:37.241Z,9.50
2018-05-24T23:56:04.686Z,10.07
2018-05-24T23:58:32.894Z,10.90
